createdAt,value
2023-02-11T00:02:48.063Z,11.07
2023-02-11T00:08:32.426Z,11.03
2023-02-11T00:14:16.234Z,11
2023-02-11T00:19:59.945Z,10.95
2023-02-11T00:25:44.960Z,10.94
2023-02-11T00:31:29.304Z,10.92
2023-02-11T00:37:13.828Z,10.87
2023-02-11T00:42:57.541Z,10.84
2023-02-11T00:48:41.384Z,10.8
2023-02-11T00:54:25.026Z,10.8
2023-02-11T01:00:13.477Z,10.82
2023-02-11T01:05:57.255Z,10.81
2023-02-11T01:11:40.937Z,10.84
2023-02-11T01:17:24.899Z,10.85
2023-02-11T01:23:08.563Z,10.87
2023-02-11T01:28:52.310Z,10.88
2023-02-11T01:34:36.116Z,10.89
2023-02-11T01:40:19.896Z,10.91
2023-02-11T01:46:19.779Z,10.89
2023-02-11T01:52:06.389Z,10.94
2023-02-11T01:57:52.347Z,10.93
2023-02-11T02:03:39.719Z,10.93
2023-02-11T02:09:26.564Z,10.92
2023-02-11T02:15:24.663Z,10.92
2023-02-11T02:21:27.665Z,10.97
2023-02-11T02:27:28.831Z,11.02
2023-02-11T02:33:24.153Z,11.04
2023-02-11T02:39:11.824Z,11.03
2023-02-11T02:44:55.880Z,11.02
2023-02-11T02:50:40.047Z,11.01
2023-02-11T02:56:28.407Z,11.02
2023-02-11T03:02:16.865Z,11.02
2023-02-11T03:08:03.890Z,11.02
2023-02-11T03:13:48.525Z,11.02
2023-02-11T03:19:35.522Z,11.02
2023-02-11T03:25:20.515Z,11.04
2023-02-11T03:31:10.334Z,11.04
2023-02-11T03:36:56.934Z,11.05
2023-02-11T03:42:42.286Z,11.07
2023-02-11T03:48:27.656Z,11.06
2023-02-11T03:54:16.276Z,11.08
2023-02-11T04:00:00.048Z,11.09
2023-02-11T04:05:43.889Z,11.08
2023-02-11T04:11:27.585Z,11.07
2023-02-11T04:17:11.727Z,11.06
2023-02-11T04:22:55.483Z,11.06
2023-02-11T04:28:39.377Z,11.05
2023-02-11T04:34:23.439Z,11.05
2023-02-11T04:40:08.088Z,11.05
2023-02-11T04:45:52.138Z,11.05
2023-02-11T04:51:36.456Z,11.06
2023-02-11T04:57:20.206Z,11.12
2023-02-11T05:03:04.011Z,11.08
2023-02-11T05:08:47.619Z,11.09
2023-02-11T05:14:31.468Z,11.07
2023-02-11T05:20:15.478Z,11.04
2023-02-11T05:25:59.187Z,11.06
2023-02-11T05:31:43.112Z,11.05
2023-02-11T05:37:26.904Z,11.04
2023-02-11T05:43:10.758Z,11.04
2023-02-11T05:48:54.394Z,11.05
2023-02-11T05:54:38.206Z,11.09
2023-02-11T06:00:22.416Z,11.08
2023-02-11T06:06:09.137Z,11.09
2023-02-11T06:11:53.178Z,11.08
2023-02-11T06:17:37.000Z,11.07
2023-02-11T06:23:20.885Z,11.07
2023-02-11T06:29:05.343Z,11.07
2023-02-11T06:34:49.426Z,11.07
2023-02-11T06:40:33.277Z,11.08
2023-02-11T06:46:17.090Z,11.08
2023-02-11T06:52:00.891Z,11.07
2023-02-11T06:57:44.594Z,11.08
2023-02-11T07:03:28.436Z,11.06
2023-02-11T07:09:12.220Z,11.08
2023-02-11T07:14:56.489Z,11.08
2023-02-11T07:20:40.843Z,11.09
2023-02-11T07:26:24.690Z,11.15
2023-02-11T07:32:08.664Z,11.14
2023-02-11T07:37:52.770Z,11.17
2023-02-11T07:43:37.210Z,11.18
2023-02-11T07:49:21.095Z,11.2
2023-02-11T07:55:05.144Z,11.31
2023-02-11T08:00:48.980Z,11.47
2023-02-11T08:06:34.325Z,11.48
2023-02-11T08:12:18.004Z,11.56
2023-02-11T08:18:00.899Z,11.57
2023-02-11T08:23:44.735Z,11.53
2023-02-11T08:29:29.464Z,11.53
2023-02-11T08:35:13.273Z,11.54
2023-02-11T08:40:59.188Z,11.59
2023-02-11T08:46:42.903Z,11.63
2023-02-11T08:52:26.747Z,11.66
2023-02-11T08:58:11.482Z,11.68
2023-02-11T09:03:55.395Z,11.71
2023-02-11T09:09:39.200Z,11.73
2023-02-11T09:15:22.941Z,11.76
2023-02-11T09:21:07.865Z,11.84
2023-02-11T09:26:51.886Z,11.86
2023-02-11T09:32:36.651Z,11.83
2023-02-11T09:38:20.461Z,11.87
2023-02-11T09:44:06.349Z,11.88
2023-02-11T09:49:52.446Z,11.91
2023-02-11T09:55:39.096Z,11.96
2023-02-11T10:01:28.613Z,11.98
2023-02-11T10:07:17.102Z,12.02
2023-02-11T10:13:08.244Z,12.05
2023-02-11T10:19:06.562Z,12.14
2023-02-11T10:24:53.684Z,12.23
2023-02-11T10:30:39.411Z,12.24
2023-02-11T10:36:28.038Z,12.3
2023-02-11T10:42:13.218Z,12.31
2023-02-11T10:47:56.863Z,12.34
2023-02-11T10:53:40.842Z,12.47
2023-02-11T10:59:27.240Z,12.62
2023-02-11T11:05:15.376Z,12.67
2023-02-11T11:11:06.502Z,12.73
2023-02-11T11:16:54.753Z,12.74
2023-02-11T11:22:38.720Z,12.77
2023-02-11T11:28:24.582Z,12.8
2023-02-11T11:34:14.198Z,12.94
2023-02-11T11:40:02.229Z,13.01
2023-02-11T11:45:56.785Z,13.11
2023-02-11T11:51:41.978Z,13.16
2023-02-11T11:57:26.949Z,13.22
2023-02-11T12:03:22.049Z,13.24
2023-02-11T12:09:10.673Z,13.29
2023-02-11T12:14:58.731Z,13.34
2023-02-11T12:20:47.782Z,13.55
2023-02-11T12:26:35.764Z,13.59
2023-02-11T12:32:24.719Z,13.73
2023-02-11T12:38:25.159Z,13.56
2023-02-11T12:44:10.822Z,13.54
2023-02-11T12:50:03.946Z,13.53
2023-02-11T12:55:51.378Z,13.53
2023-02-11T13:01:39.489Z,13.56
2023-02-11T13:07:28.242Z,13.6
2023-02-11T13:13:16.920Z,13.57
2023-02-11T13:19:08.100Z,13.6
2023-02-11T13:24:56.711Z,13.56
2023-02-11T13:30:41.608Z,13.49
2023-02-11T13:36:27.248Z,13.47
2023-02-11T13:42:15.210Z,13.45
2023-02-11T13:48:01.856Z,13.49
2023-02-11T13:53:50.231Z,13.52
2023-02-11T13:59:51.569Z,13.49
2023-02-11T14:05:37.611Z,13.54
2023-02-11T14:11:33.557Z,13.47
2023-02-11T14:17:27.165Z,13.47
2023-02-11T14:23:24.453Z,13.56
2023-02-11T14:29:15.304Z,13.52
2023-02-11T14:35:05.202Z,13.46
2023-02-11T14:40:54.799Z,13.4
2023-02-11T14:46:38.601Z,13.39
2023-02-11T14:52:26.244Z,13.36
2023-02-11T14:58:12.382Z,13.34
2023-02-11T15:03:56.440Z,13.31
2023-02-11T15:09:41.826Z,13.28
2023-02-11T15:15:25.839Z,13.29
2023-02-11T15:21:10.173Z,13.31
2023-02-11T15:27:00.810Z,13.32
2023-02-11T15:32:44.657Z,13.32
2023-02-11T15:38:29.534Z,13.26
2023-02-11T15:44:29.678Z,13.26
2023-02-11T15:50:24.486Z,13.23
2023-02-11T15:56:11.597Z,13.21
2023-02-11T16:01:57.554Z,13.16
2023-02-11T16:07:43.736Z,13.15
2023-02-11T16:13:27.552Z,13.11
2023-02-11T16:19:18.206Z,13.17
2023-02-11T16:25:04.919Z,13.15
2023-02-11T16:30:51.262Z,13.09
2023-02-11T16:36:36.641Z,13.05
2023-02-11T16:42:20.725Z,13
2023-02-11T16:48:05.704Z,12.97
2023-02-11T16:53:49.521Z,12.96
2023-02-11T16:59:32.212Z,12.94
2023-02-11T17:05:20.755Z,12.91
2023-02-11T17:11:25.342Z,12.91
2023-02-11T17:17:09.318Z,12.91
2023-02-11T17:22:53.226Z,12.86
2023-02-11T17:28:37.130Z,12.86
2023-02-11T17:34:21.902Z,12.82
2023-02-11T17:40:05.540Z,12.79
2023-02-11T17:45:49.517Z,12.74
2023-02-11T17:51:35.883Z,12.7
2023-02-11T17:57:19.875Z,12.7
2023-02-11T18:03:03.894Z,12.69
2023-02-11T18:08:47.853Z,12.68
2023-02-11T18:14:32.773Z,12.66
2023-02-11T18:20:17.037Z,12.6
2023-02-11T18:26:01.186Z,12.61
2023-02-11T18:31:45.757Z,12.59
2023-02-11T18:37:29.850Z,12.55
2023-02-11T18:43:13.638Z,12.52
2023-02-11T18:48:57.571Z,12.49
2023-02-11T18:54:42.302Z,12.51
2023-02-11T19:00:26.920Z,12.48
2023-02-11T19:06:18.445Z,12.46
2023-02-11T19:12:02.654Z,12.47
2023-02-11T19:17:46.407Z,12.48
2023-02-11T19:23:30.152Z,12.48
2023-02-11T19:29:15.090Z,12.48
2023-02-11T19:34:58.857Z,12.47
2023-02-11T19:40:42.678Z,12.45
2023-02-11T19:46:27.887Z,12.43
2023-02-11T19:52:11.999Z,12.42
2023-02-11T19:57:57.781Z,12.42
2023-02-11T20:03:42.663Z,12.48
2023-02-11T20:09:26.528Z,12.49
2023-02-11T20:15:11.456Z,12.45
2023-02-11T20:20:55.290Z,12.39
2023-02-11T20:26:38.883Z,12.36
2023-02-11T20:32:22.551Z,12.35
2023-02-11T20:38:06.432Z,12.34
2023-02-11T20:43:51.649Z,12.36
2023-02-11T20:49:35.366Z,12.36
2023-02-11T20:55:19.277Z,12.37
2023-02-11T21:01:10.500Z,12.35
2023-02-11T21:06:55.338Z,12.35
2023-02-11T21:12:39.065Z,12.36
2023-02-11T21:18:23.502Z,12.34
2023-02-11T21:24:08.410Z,12.34
2023-02-11T21:29:54.337Z,12.34
2023-02-11T21:35:39.715Z,12.33
2023-02-11T21:41:23.687Z,12.31
2023-02-11T21:47:07.643Z,12.31
2023-02-11T21:52:51.589Z,12.31
2023-02-11T21:58:35.552Z,12.33
2023-02-11T22:04:19.525Z,12.31
2023-02-11T22:10:03.773Z,12.29
2023-02-11T22:15:53.536Z,12.3
2023-02-11T22:21:38.791Z,12.3
2023-02-11T22:27:22.598Z,12.3
2023-02-11T22:33:08.037Z,12.29
2023-02-11T22:38:52.074Z,12.29
2023-02-11T22:44:36.559Z,12.28
2023-02-11T22:50:20.419Z,12.27
2023-02-11T22:56:08.467Z,12.29
2023-02-11T23:01:55.886Z,12.3
2023-02-11T23:07:40.007Z,12.32
2023-02-11T23:13:23.840Z,12.3
2023-02-11T23:19:08.422Z,12.27
2023-02-11T23:24:52.216Z,12.29
2023-02-11T23:30:37.261Z,12.28
2023-02-11T23:36:21.110Z,12.28
2023-02-11T23:42:05.158Z,12.26
2023-02-11T23:47:49.038Z,12.26
2023-02-11T23:53:32.686Z,12.28
2023-02-11T23:59:16.381Z,12.27
